sensor_id;sensor_type;location;lat;lon;timestamp;pressure;altitude;pressure_sealevel;temperature;humidity
64253;BME280;50592;52.958;-7.470;2024-03-23T00:53:12;100641.50;;;4.03;100.00
64253;BME280;50592;52.958;-7.470;2024-03-23T00:55:44;100629.25;;;4.04;100.00
64253;BME280;50592;52.958;-7.470;2024-03-23T01:05:54;100632.16;;;3.99;100.00
64253;BME280;50592;52.958;-7.470;2024-03-23T01:08:36;100641.19;;;4.08;100.00
64253;BME280;50592;52.958;-7.470;2024-03-23T01:11:46;100627.50;;;4.04;100.00
64253;BME280;50592;52.958;-7.470;2024-03-23T01:18:46;100615.34;;;4.03;100.00
64253;BME280;50592;52.958;-7.470;2024-03-23T01:24:45;100614.31;;;4.06;100.00
64253;BME280;50592;52.958;-7.470;2024-03-23T01:27:26;100616.66;;;4.11;100.00
64253;BME280;50592;52.958;-7.470;2024-03-23T01:30:37;100613.19;;;4.10;100.00
64253;BME280;50592;52.958;-7.470;2024-03-23T01:33:15;100608.78;;;4.11;100.00
64253;BME280;50592;52.958;-7.470;2024-03-23T01:40:05;100591.41;;;4.09;100.00
64253;BME280;50592;52.958;-7.470;2024-03-23T01:44:04;100578.31;;;4.09;100.00
64253;BME280;50592;52.958;-7.470;2024-03-23T01:46:50;100589.53;;;4.12;100.00
64253;BME280;50592;52.958;-7.470;2024-03-23T01:53:12;100571.97;;;4.14;100.00
64253;BME280;50592;52.958;-7.470;2024-03-23T01:56:52;100579.06;;;4.12;100.00
64253;BME280;50592;52.958;-7.470;2024-03-23T01:59:40;100566.84;;;4.12;100.00
64253;BME280;50592;52.958;-7.470;2024-03-23T02:07:09;100562.13;;;4.17;100.00
64253;BME280;50592;52.958;-7.470;2024-03-23T02:10:03;100554.19;;;4.19;100.00
64253;BME280;50592;52.958;-7.470;2024-03-23T02:13:27;100553.06;;;4.23;100.00
64253;BME280;50592;52.958;-7.470;2024-03-23T02:19:48;100555.44;;;4.13;100.00
64253;BME280;50592;52.958;-7.470;2024-03-23T02:26:16;100554.41;;;4.29;100.00
64253;BME280;50592;52.958;-7.470;2024-03-23T02:29:42;100534.84;;;4.21;100.00
64253;BME280;50592;52.958;-7.470;2024-03-23T02:39:09;100523.44;;;4.22;100.00
64253;BME280;50592;52.958;-7.470;2024-03-23T02:41:59;100502.41;;;4.24;100.00
64253;BME280;50592;52.958;-7.470;2024-03-23T02:52:28;100512.16;;;4.22;100.00
64253;BME280;50592;52.958;-7.470;2024-03-23T02:59:11;100502.06;;;4.16;100.00
64253;BME280;50592;52.958;-7.470;2024-03-23T03:01:51;100507.28;;;4.16;100.00
64253;BME280;50592;52.958;-7.470;2024-03-23T03:04:30;100503.22;;;4.12;100.00
64253;BME280;50592;52.958;-7.470;2024-03-23T03:07:10;100500.09;;;4.19;100.00
64253;BME280;50592;52.958;-7.470;2024-03-23T03:09:58;100493.50;;;4.14;100.00
64253;BME280;50592;52.958;-7.470;2024-03-23T03:12:31;100490.88;;;4.14;100.00
64253;BME280;50592;52.958;-7.470;2024-03-23T03:15:32;100484.16;;;4.09;100.00
64253;BME280;50592;52.958;-7.470;2024-03-23T03:18:18;100483.13;;;4.12;100.00
64253;BME280;50592;52.958;-7.470;2024-03-23T03:20:45;100481.22;;;4.14;100.00
64253;BME280;50592;52.958;-7.470;2024-03-23T03:23:18;100482.63;;;4.20;100.00
64253;BME280;50592;52.958;-7.470;2024-03-23T03:26:07;100485.88;;;4.24;100.00
64253;BME280;50592;52.958;-7.470;2024-03-23T03:28:38;100477.28;;;4.21;100.00
64253;BME280;50592;52.958;-7.470;2024-03-23T03:31:09;100474.66;;;4.21;100.00
64253;BME280;50592;52.958;-7.470;2024-03-23T03:34:05;100470.28;;;4.22;100.00
64253;BME280;50592;52.958;-7.470;2024-03-23T03:36:31;100473.72;;;4.22;100.00
64253;BME280;50592;52.958;-7.470;2024-03-23T03:39:03;100469.03;;;4.28;100.00
64253;BME280;50592;52.958;-7.470;2024-03-23T03:42:04;100472.38;;;4.30;100.00
64253;BME280;50592;52.958;-7.470;2024-03-23T03:44:47;100455.63;;;4.32;100.00
64253;BME280;50592;52.958;-7.470;2024-03-23T03:47:26;100458.25;;;4.32;100.00
64253;BME280;50592;52.958;-7.470;2024-03-23T03:49:52;100455.53;;;4.34;100.00
64253;BME280;50592;52.958;-7.470;2024-03-23T03:52:25;100450.72;;;4.41;100.00
64253;BME280;50592;52.958;-7.470;2024-03-23T03:55:26;100455.09;;;4.40;100.00
64253;BME280;50592;52.958;-7.470;2024-03-23T03:58:26;100453.44;;;4.39;100.00
64253;BME280;50592;52.958;-7.470;2024-03-23T04:01:09;100433.97;;;4.43;100.00
64253;BME280;50592;52.958;-7.470;2024-03-23T04:03:38;100453.72;;;4.47;100.00
64253;BME280;50592;52.958;-7.470;2024-03-23T04:06:24;100451.97;;;4.48;100.00
64253;BME280;50592;52.958;-7.470;2024-03-23T04:09:18;100441.81;;;4.43;100.00
64253;BME280;50592;52.958;-7.470;2024-03-23T04:12:02;100433.84;;;4.45;100.00
64253;BME280;50592;52.958;-7.470;2024-03-23T04:15:38;100446.00;;;4.46;100.00
64253;BME280;50592;52.958;-7.470;2024-03-23T04:18:15;100444.44;;;4.43;100.00
64253;BME280;50592;52.958;-7.470;2024-03-23T04:21:25;100440.03;;;4.44;100.00
64253;BME280;50592;52.958;-7.470;2024-03-23T04:24:09;100433.75;;;4.46;100.00
64253;BME280;50592;52.958;-7.470;2024-03-23T04:26:59;100430.91;;;4.50;100.00
64253;BME280;50592;52.958;-7.470;2024-03-23T04:29:33;100415.22;;;4.50;100.00
64253;BME280;50592;52.958;-7.470;2024-03-23T04:32:06;100411.56;;;4.52;100.00
64253;BME280;50592;52.958;-7.470;2024-03-23T04:35:21;100407.88;;;4.55;100.00
64253;BME280;50592;52.958;-7.470;2024-03-23T04:38:04;100409.97;;;4.50;100.00
64253;BME280;50592;52.958;-7.470;2024-03-23T04:41:01;100405.69;;;4.49;100.00
64253;BME280;50592;52.958;-7.470;2024-03-23T04:51:03;100395.34;;;4.47;100.00
64253;BME280;50592;52.958;-7.470;2024-03-23T04:57:31;100404.63;;;4.51;100.00
64253;BME280;50592;52.958;-7.470;2024-03-23T04:59:58;100395.53;;;4.44;100.00
64253;BME280;50592;52.958;-7.470;2024-03-23T05:02:32;100394.81;;;4.42;100.00
64253;BME280;50592;52.958;-7.470;2024-03-23T05:05:08;100377.94;;;4.46;100.00
64253;BME280;50592;52.958;-7.470;2024-03-23T05:07:40;100398.59;;;4.51;100.00
64253;BME280;50592;52.958;-7.470;2024-03-23T05:10:21;100379.63;;;4.47;100.00
64253;BME280;50592;52.958;-7.470;2024-03-23T05:12:50;100361.53;;;4.44;100.00
64253;BME280;50592;52.958;-7.470;2024-03-23T05:15:38;100367.25;;;4.49;100.00
64253;BME280;50592;52.958;-7.470;2024-03-23T05:18:28;100343.41;;;4.54;100.00
64253;BME280;50592;52.958;-7.470;2024-03-23T05:21:18;100344.97;;;4.56;100.00
64253;BME280;50592;52.958;-7.470;2024-03-23T05:23:47;100344.22;;;4.54;100.00
64253;BME280;50592;52.958;-7.470;2024-03-23T05:26:59;100342.44;;;4.55;100.00
64253;BME280;50592;52.958;-7.470;2024-03-23T05:29:57;100355.31;;;4.58;100.00
64253;BME280;50592;52.958;-7.470;2024-03-23T05:32:54;100357.84;;;4.46;100.00
64253;BME280;50592;52.958;-7.470;2024-03-23T05:35:30;100356.50;;;4.54;100.00
64253;BME280;50592;52.958;-7.470;2024-03-23T05:38:12;100342.34;;;4.56;100.00
64253;BME280;50592;52.958;-7.470;2024-03-23T05:41:02;100344.53;;;4.63;100.00
64253;BME280;50592;52.958;-7.470;2024-03-23T05:43:29;100348.22;;;4.60;100.00
64253;BME280;50592;52.958;-7.470;2024-03-23T05:46:02;100342.44;;;4.68;100.00
64253;BME280;50592;52.958;-7.470;2024-03-23T05:49:04;100333.00;;;4.65;100.00
64253;BME280;50592;52.958;-7.470;2024-03-23T05:51:37;100338.44;;;4.62;100.00
64253;BME280;50592;52.958;-7.470;2024-03-23T05:54:03;100335.72;;;4.64;100.00
64253;BME280;50592;52.958;-7.470;2024-03-23T05:56:31;100338.22;;;4.65;100.00
64253;BME280;50592;52.958;-7.470;2024-03-23T06:02:23;100359.16;;;4.65;100.00
64253;BME280;50592;52.958;-7.470;2024-03-23T06:05:03;100353.72;;;4.68;100.00
64253;BME280;50592;52.958;-7.470;2024-03-23T06:08:24;100356.06;;;4.60;100.00
64253;BME280;50592;52.958;-7.470;2024-03-23T06:10:54;100358.25;;;4.66;100.00
64253;BME280;50592;52.958;-7.470;2024-03-23T06:13:26;100348.81;;;4.64;100.00
64253;BME280;50592;52.958;-7.470;2024-03-23T06:18:44;100350.72;;;4.62;100.00
64253;BME280;50592;52.958;-7.470;2024-03-23T06:21:18;100348.00;;;4.63;100.00
64253;BME280;50592;52.958;-7.470;2024-03-23T06:23:47;100345.25;;;4.65;100.00
64253;BME280;50592;52.958;-7.470;2024-03-23T06:26:24;100337.00;;;4.58;100.00
64253;BME280;50592;52.958;-7.470;2024-03-23T06:28:51;100333.94;;;4.64;100.00
64253;BME280;50592;52.958;-7.470;2024-03-23T06:31:57;100327.97;;;4.62;100.00
64253;BME280;50592;52.958;-7.470;2024-03-23T06:34:36;100337.84;;;4.58;100.00
64253;BME280;50592;52.958;-7.470;2024-03-23T06:37:17;100333.44;;;4.59;100.00
64253;BME280;50592;52.958;-7.470;2024-03-23T06:40:05;100327.25;;;4.60;100.00
64253;BME280;50592;52.958;-7.470;2024-03-23T06:43:05;100331.53;;;4.61;100.00
64253;BME280;50592;52.958;-7.470;2024-03-23T06:45:48;100327.97;;;4.62;100.00
64253;BME280;50592;52.958;-7.470;2024-03-23T06:51:52;100318.00;;;4.67;100.00
64253;BME280;50592;52.958;-7.470;2024-03-23T06:54:33;100316.25;;;4.68;100.00
64253;BME280;50592;52.958;-7.470;2024-03-23T06:57:03;100316.94;;;4.70;100.00
64253;BME280;50592;52.958;-7.470;2024-03-23T07:02:34;100313.41;;;4.71;100.00
64253;BME280;50592;52.958;-7.470;2024-03-23T07:05:27;100316.84;;;4.71;100.00
64253;BME280;50592;52.958;-7.470;2024-03-23T07:08:06;100320.41;;;4.70;100.00
64253;BME280;50592;52.958;-7.470;2024-03-23T07:10:53;100326.38;;;4.72;100.00
64253;BME280;50592;52.958;-7.470;2024-03-23T07:13:49;100318.09;;;4.79;100.00
64253;BME280;50592;52.958;-7.470;2024-03-23T07:16:29;100320.94;;;4.76;100.00
64253;BME280;50592;52.958;-7.470;2024-03-23T07:22:48;100324.06;;;4.81;100.00
64253;BME280;50592;52.958;-7.470;2024-03-23T07:25:36;100321.56;;;4.79;100.00
64253;BME280;50592;52.958;-7.470;2024-03-23T07:28:28;100326.78;;;4.79;100.00
64253;BME280;50592;52.958;-7.470;2024-03-23T07:31:30;100336.00;;;4.72;100.00
64253;BME280;50592;52.958;-7.470;2024-03-23T07:34:03;100325.53;;;4.72;100.00
64253;BME280;50592;52.958;-7.470;2024-03-23T07:36:53;100331.09;;;4.67;100.00
64253;BME280;50592;52.958;-7.470;2024-03-23T07:39:40;100323.38;;;4.53;100.00
64253;BME280;50592;52.958;-7.470;2024-03-23T07:42:10;100322.72;;;4.62;100.00
64253;BME280;50592;52.958;-7.470;2024-03-23T07:44:44;100322.13;;;4.58;100.00
64253;BME280;50592;52.958;-7.470;2024-03-23T07:47:23;100339.06;;;4.66;100.00
64253;BME280;50592;52.958;-7.470;2024-03-23T07:49:58;100338.56;;;4.61;100.00
64253;BME280;50592;52.958;-7.470;2024-03-23T07:53:01;100323.69;;;4.61;100.00
64253;BME280;50592;52.958;-7.470;2024-03-23T07:56:09;100334.69;;;4.66;100.00
64253;BME280;50592;52.958;-7.470;2024-03-23T07:58:47;100328.72;;;4.64;100.00
64253;BME280;50592;52.958;-7.470;2024-03-23T08:01:48;100333.72;;;4.67;100.00
64253;BME280;50592;52.958;-7.470;2024-03-23T08:05:02;100322.28;;;4.68;100.00
64253;BME280;50592;52.958;-7.470;2024-03-23T08:07:52;100331.84;;;4.69;100.00
64253;BME280;50592;52.958;-7.470;2024-03-23T08:11:39;100334.03;;;4.76;100.00
64253;BME280;50592;52.958;-7.470;2024-03-23T08:14:34;100325.44;;;4.74;100.00
64253;BME280;50592;52.958;-7.470;2024-03-23T08:17:09;100347.00;;;4.77;100.00
64253;BME280;50592;52.958;-7.470;2024-03-23T08:19:44;100339.38;;;4.74;100.00
64253;BME280;50592;52.958;-7.470;2024-03-23T08:22:37;100343.84;;;4.85;100.00
64253;BME280;50592;52.958;-7.470;2024-03-23T08:25:23;100356.41;;;4.80;100.00
64253;BME280;50592;52.958;-7.470;2024-03-23T08:27:56;100358.13;;;4.81;100.00
64253;BME280;50592;52.958;-7.470;2024-03-23T08:30:32;100347.34;;;4.72;100.00
64253;BME280;50592;52.958;-7.470;2024-03-23T08:33:01;100348.22;;;4.84;100.00
64253;BME280;50592;52.958;-7.470;2024-03-23T08:35:30;100353.16;;;4.89;100.00
64253;BME280;50592;52.958;-7.470;2024-03-23T08:37:57;100354.19;;;5.00;100.00
64253;BME280;50592;52.958;-7.470;2024-03-23T08:40:25;100350.47;;;5.02;100.00
64253;BME280;50592;52.958;-7.470;2024-03-23T08:42:55;100352.16;;;5.03;100.00
64253;BME280;50592;52.958;-7.470;2024-03-23T08:45:27;100349.63;;;5.02;100.00
64253;BME280;50592;52.958;-7.470;2024-03-23T08:47:53;100354.19;;;5.00;100.00
64253;BME280;50592;52.958;-7.470;2024-03-23T08:50:19;100350.25;;;5.05;100.00
64253;BME280;50592;52.958;-7.470;2024-03-23T08:53:00;100345.44;;;5.12;100.00
64253;BME280;50592;52.958;-7.470;2024-03-23T08:55:55;100352.84;;;5.18;100.00
64253;BME280;50592;52.958;-7.470;2024-03-23T08:58:52;100345.31;;;5.14;100.00
64253;BME280;50592;52.958;-7.470;2024-03-23T09:01:29;100351.53;;;5.24;100.00
64253;BME280;50592;52.958;-7.470;2024-03-23T09:04:01;100358.19;;;5.41;100.00
64253;BME280;50592;52.958;-7.470;2024-03-23T09:06:30;100363.22;;;5.44;100.00
64253;BME280;50592;52.958;-7.470;2024-03-23T09:09:08;100361.69;;;5.53;100.00
64253;BME280;50592;52.958;-7.470;2024-03-23T09:12:10;100358.00;;;5.56;100.00
64253;BME280;50592;52.958;-7.470;2024-03-23T09:14:38;100348.81;;;5.50;100.00
64253;BME280;50592;52.958;-7.470;2024-03-23T09:19:46;100345.34;;;5.50;100.00
64253;BME280;50592;52.958;-7.470;2024-03-23T09:22:15;100336.53;;;5.51;100.00
64253;BME280;50592;52.958;-7.470;2024-03-23T09:24:50;100342.19;;;5.69;100.00
64253;BME280;50592;52.958;-7.470;2024-03-23T09:27:19;100334.16;;;5.59;100.00
64253;BME280;50592;52.958;-7.470;2024-03-23T09:29:50;100330.16;;;5.66;100.00
64253;BME280;50592;52.958;-7.470;2024-03-23T09:32:31;100339.94;;;5.76;100.00
64253;BME280;50592;52.958;-7.470;2024-03-23T09:35:23;100339.56;;;5.69;100.00
64253;BME280;50592;52.958;-7.470;2024-03-23T09:37:58;100350.44;;;5.76;100.00
64253;BME280;50592;52.958;-7.470;2024-03-23T09:40:24;100347.44;;;5.69;100.00
64253;BME280;50592;52.958;-7.470;2024-03-23T09:43:06;100344.94;;;5.79;100.00
64253;BME280;50592;52.958;-7.470;2024-03-23T09:45:39;100345.56;;;5.82;100.00
64253;BME280;50592;52.958;-7.470;2024-03-23T09:48:09;100347.84;;;5.87;100.00
64253;BME280;50592;52.958;-7.470;2024-03-23T09:50:44;100344.75;;;5.93;100.00
64253;BME280;50592;52.958;-7.470;2024-03-23T09:53:25;100344.91;;;6.03;100.00
64253;BME280;50592;52.958;-7.470;2024-03-23T09:55:59;100343.25;;;6.14;100.00
64253;BME280;50592;52.958;-7.470;2024-03-23T09:58:25;100358.78;;;6.28;100.00
64253;BME280;50592;52.958;-7.470;2024-03-23T10:00:51;100346.97;;;6.34;100.00
64253;BME280;50592;52.958;-7.470;2024-03-23T10:03:17;100359.16;;;6.35;100.00
64253;BME280;50592;52.958;-7.470;2024-03-23T10:05:46;100348.53;;;6.37;100.00
64253;BME280;50592;52.958;-7.470;2024-03-23T10:08:30;100341.59;;;6.36;100.00
64253;BME280;50592;52.958;-7.470;2024-03-23T10:11:20;100340.53;;;6.27;100.00
64253;BME280;50592;52.958;-7.470;2024-03-23T10:14:02;100333.47;;;6.39;100.00
64253;BME280;50592;52.958;-7.470;2024-03-23T10:16:28;100336.69;;;6.54;100.00
64253;BME280;50592;52.958;-7.470;2024-03-23T10:21:56;100333.94;;;6.78;100.00
64253;BME280;50592;52.958;-7.470;2024-03-23T10:24:31;100332.47;;;6.86;100.00
64253;BME280;50592;52.958;-7.470;2024-03-23T10:27:07;100340.72;;;6.92;100.00
64253;BME280;50592;52.958;-7.470;2024-03-23T10:33:17;100359.88;;;7.16;100.00
64253;BME280;50592;52.958;-7.470;2024-03-23T10:36:02;100357.34;;;7.26;100.00
64253;BME280;50592;52.958;-7.470;2024-03-23T10:41:42;100373.91;;;7.38;100.00
64253;BME280;50592;52.958;-7.470;2024-03-23T10:44:16;100372.88;;;7.50;100.00
64253;BME280;50592;52.958;-7.470;2024-03-23T10:46:52;100380.91;;;7.49;100.00
64253;BME280;50592;52.958;-7.470;2024-03-23T10:49:57;100377.75;;;7.34;100.00
64253;BME280;50592;52.958;-7.470;2024-03-23T10:53:02;100364.25;;;7.27;100.00
64253;BME280;50592;52.958;-7.470;2024-03-23T10:55:32;100362.59;;;7.26;100.00
64253;BME280;50592;52.958;-7.470;2024-03-23T10:58:15;100351.44;;;7.34;100.00
64253;BME280;50592;52.958;-7.470;2024-03-23T11:01:15;100360.47;;;7.19;100.00
64253;BME280;50592;52.958;-7.470;2024-03-23T11:04:44;100354.56;;;7.39;100.00
64253;BME280;50592;52.958;-7.470;2024-03-23T11:07:31;100363.22;;;7.51;100.00
64253;BME280;50592;52.958;-7.470;2024-03-23T11:10:27;100362.56;;;7.59;100.00
64253;BME280;50592;52.958;-7.470;2024-03-23T11:13:36;100377.03;;;7.64;100.00
64253;BME280;50592;52.958;-7.470;2024-03-23T11:16:29;100364.59;;;7.88;100.00
64253;BME280;50592;52.958;-7.470;2024-03-23T11:19:35;100350.25;;;8.02;100.00
64253;BME280;50592;52.958;-7.470;2024-03-23T11:22:13;100345.50;;;8.17;100.00
64253;BME280;50592;52.958;-7.470;2024-03-23T11:24:50;100343.22;;;8.34;100.00
64253;BME280;50592;52.958;-7.470;2024-03-23T11:27:22;100336.16;;;8.34;100.00
64253;BME280;50592;52.958;-7.470;2024-03-23T11:29:54;100321.16;;;8.35;100.00
64253;BME280;50592;52.958;-7.470;2024-03-23T11:32:23;100362.75;;;8.31;100.00
64253;BME280;50592;52.958;-7.470;2024-03-23T11:35:05;100406.44;;;7.25;100.00
64253;BME280;50592;52.958;-7.470;2024-03-23T11:37:54;100403.25;;;6.18;100.00
64253;BME280;50592;52.958;-7.470;2024-03-23T11:40:23;100362.47;;;5.67;100.00
64253;BME280;50592;52.958;-7.470;2024-03-23T11:42:58;100364.69;;;5.60;100.00
64253;BME280;50592;52.958;-7.470;2024-03-23T11:45:26;100354.38;;;5.70;100.00
64253;BME280;50592;52.958;-7.470;2024-03-23T11:48:13;100343.56;;;5.98;100.00
64253;BME280;50592;52.958;-7.470;2024-03-23T11:50:45;100342.66;;;6.22;100.00
64253;BME280;50592;52.958;-7.470;2024-03-23T11:56:03;100336.56;;;6.78;100.00
64253;BME280;50592;52.958;-7.470;2024-03-23T11:58:37;100331.38;;;6.88;100.00
64253;BME280;50592;52.958;-7.470;2024-03-23T12:01:10;100320.72;;;7.01;100.00
64253;BME280;50592;52.958;-7.470;2024-03-23T12:06:27;100334.03;;;7.32;100.00
64253;BME280;50592;52.958;-7.470;2024-03-23T12:09:05;100331.78;;;7.49;100.00
64253;BME280;50592;52.958;-7.470;2024-03-23T12:11:40;100322.22;;;7.69;100.00
64253;BME280;50592;52.958;-7.470;2024-03-23T12:14:24;100328.53;;;7.78;100.00
64253;BME280;50592;52.958;-7.470;2024-03-23T12:16:53;100334.59;;;7.79;100.00
64253;BME280;50592;52.958;-7.470;2024-03-23T12:19:21;100310.72;;;7.92;100.00
64253;BME280;50592;52.958;-7.470;2024-03-23T12:22:03;100314.00;;;8.05;100.00
64253;BME280;50592;52.958;-7.470;2024-03-23T12:24:35;100318.88;;;8.10;100.00
64253;BME280;50592;52.958;-7.470;2024-03-23T12:27:11;100325.53;;;8.14;100.00
64253;BME280;50592;52.958;-7.470;2024-03-23T12:29:43;100311.41;;;8.15;100.00
64253;BME280;50592;52.958;-7.470;2024-03-23T12:32:38;100325.00;;;8.21;100.00
64253;BME280;50592;52.958;-7.470;2024-03-23T12:35:10;100327.44;;;8.12;100.00
64253;BME280;50592;52.958;-7.470;2024-03-23T12:38:22;100338.28;;;7.88;100.00
64253;BME280;50592;52.958;-7.470;2024-03-23T12:41:07;100345.44;;;7.43;100.00
64253;BME280;50592;52.958;-7.470;2024-03-23T12:44:05;100333.00;;;7.45;100.00
64253;BME280;50592;52.958;-7.470;2024-03-23T12:46:39;100328.50;;;7.57;100.00
64253;BME280;50592;52.958;-7.470;2024-03-23T12:49:23;100307.09;;;7.62;100.00
64253;BME280;50592;52.958;-7.470;2024-03-23T12:52:24;100301.94;;;7.81;100.00
64253;BME280;50592;52.958;-7.470;2024-03-23T12:58:10;100303.84;;;8.01;100.00
64253;BME280;50592;52.958;-7.470;2024-03-23T13:01:18;100311.56;;;7.92;100.00
64253;BME280;50592;52.958;-7.470;2024-03-23T13:03:49;100322.22;;;7.91;100.00
64253;BME280;50592;52.958;-7.470;2024-03-23T13:06:33;100326.22;;;8.16;100.00
64253;BME280;50592;52.958;-7.470;2024-03-23T13:09:36;100312.84;;;8.29;100.00
64253;BME280;50592;52.958;-7.470;2024-03-23T13:12:10;100320.75;;;8.39;100.00
64253;BME280;50592;52.958;-7.470;2024-03-23T13:14:44;100299.81;;;8.38;100.00
64253;BME280;50592;52.958;-7.470;2024-03-23T13:17:20;100312.41;;;8.55;100.00
64253;BME280;50592;52.958;-7.470;2024-03-23T13:20:16;100310.63;;;8.66;100.00
64253;BME280;50592;52.958;-7.470;2024-03-23T13:23:13;100303.84;;;8.73;100.00
64253;BME280;50592;52.958;-7.470;2024-03-23T13:26:02;100323.28;;;8.92;100.00
64253;BME280;50592;52.958;-7.470;2024-03-23T13:28:40;100293.75;;;8.88;100.00
64253;BME280;50592;52.958;-7.470;2024-03-23T13:31:11;100300.28;;;9.04;100.00
64253;BME280;50592;52.958;-7.470;2024-03-23T13:34:08;100300.97;;;9.36;100.00
64253;BME280;50592;52.958;-7.470;2024-03-23T13:36:42;100302.50;;;9.38;100.00
64253;BME280;50592;52.958;-7.470;2024-03-23T13:39:17;100282.50;;;9.36;98.95
64253;BME280;50592;52.958;-7.470;2024-03-23T13:41:53;100297.22;;;9.48;98.31
64253;BME280;50592;52.958;-7.470;2024-03-23T13:44:45;100297.50;;;9.45;100.00
64253;BME280;50592;52.958;-7.470;2024-03-23T13:47:14;100298.34;;;9.46;100.00
64253;BME280;50592;52.958;-7.470;2024-03-23T13:49:43;100296.25;;;9.29;100.00
64253;BME280;50592;52.958;-7.470;2024-03-23T13:52:14;100295.56;;;9.37;100.00
64253;BME280;50592;52.958;-7.470;2024-03-23T13:55:21;100305.53;;;9.63;100.00
64253;BME280;50592;52.958;-7.470;2024-03-23T13:58:17;100306.47;;;9.72;93.68
64253;BME280;50592;52.958;-7.470;2024-03-23T14:00:52;100298.41;;;9.84;99.51
64253;BME280;50592;52.958;-7.470;2024-03-23T14:03:37;100286.97;;;9.93;98.50
64253;BME280;50592;52.958;-7.470;2024-03-23T14:06:13;100285.03;;;9.95;94.87
64253;BME280;50592;52.958;-7.470;2024-03-23T14:09:39;100286.66;;;10.06;82.09
64253;BME280;50592;52.958;-7.470;2024-03-23T14:12:08;100281.25;;;9.98;84.17
64253;BME280;50592;52.958;-7.470;2024-03-23T14:15:01;100278.88;;;10.04;75.71
64253;BME280;50592;52.958;-7.470;2024-03-23T14:21:09;100295.44;;;9.97;77.95
64253;BME280;50592;52.958;-7.470;2024-03-23T14:24:01;100294.91;;;9.93;70.89
64253;BME280;50592;52.958;-7.470;2024-03-23T14:26:44;100316.81;;;9.55;75.38
64253;BME280;50592;52.958;-7.470;2024-03-23T14:29:24;100295.13;;;9.42;77.70
64253;BME280;50592;52.958;-7.470;2024-03-23T14:32:15;100294.31;;;9.12;84.44
64253;BME280;50592;52.958;-7.470;2024-03-23T14:34:44;100292.25;;;9.15;91.35
64253;BME280;50592;52.958;-7.470;2024-03-23T14:37:17;100307.22;;;9.35;93.73
64253;BME280;50592;52.958;-7.470;2024-03-23T14:39:44;100296.78;;;9.43;92.09
64253;BME280;50592;52.958;-7.470;2024-03-23T14:42:16;100287.06;;;9.53;90.16
64253;BME280;50592;52.958;-7.470;2024-03-23T14:44:45;100299.16;;;9.56;91.02
64253;BME280;50592;52.958;-7.470;2024-03-23T14:47:13;100289.44;;;9.47;90.56
64253;BME280;50592;52.958;-7.470;2024-03-23T14:49:56;100298.91;;;9.29;88.38
64253;BME280;50592;52.958;-7.470;2024-03-23T14:52:50;100301.97;;;9.25;86.71
64253;BME280;50592;52.958;-7.470;2024-03-23T14:55:21;100289.72;;;9.24;90.41
64253;BME280;50592;52.958;-7.470;2024-03-23T14:57:55;100297.63;;;9.24;88.90
64253;BME280;50592;52.958;-7.470;2024-03-23T15:00:25;100293.50;;;9.01;84.31
64253;BME280;50592;52.958;-7.470;2024-03-23T15:03:10;100287.81;;;9.06;90.05
64253;BME280;50592;52.958;-7.470;2024-03-23T15:05:36;100291.53;;;9.03;91.77
64253;BME280;50592;52.958;-7.470;2024-03-23T15:08:10;100300.00;;;9.07;92.01
64253;BME280;50592;52.958;-7.470;2024-03-23T15:10:40;100302.78;;;8.96;90.24
64253;BME280;50592;52.958;-7.470;2024-03-23T15:16:19;100290.16;;;8.99;91.72
64253;BME280;50592;52.958;-7.470;2024-03-23T15:19:07;100296.28;;;9.00;88.76
64253;BME280;50592;52.958;-7.470;2024-03-23T15:21:51;100309.03;;;9.04;89.65
64253;BME280;50592;52.958;-7.470;2024-03-23T15:24:51;100296.66;;;9.05;94.70
64253;BME280;50592;52.958;-7.470;2024-03-23T15:27:46;100295.53;;;8.88;92.25
64253;BME280;50592;52.958;-7.470;2024-03-23T15:30:34;100304.56;;;8.85;88.15
64253;BME280;50592;52.958;-7.470;2024-03-23T15:33:09;100301.53;;;8.90;93.11
64253;BME280;50592;52.958;-7.470;2024-03-23T15:36:01;100299.72;;;9.10;87.44
64253;BME280;50592;52.958;-7.470;2024-03-23T15:39:06;100291.97;;;9.28;76.93
64253;BME280;50592;52.958;-7.470;2024-03-23T15:41:43;100293.91;;;9.26;76.39
64253;BME280;50592;52.958;-7.470;2024-03-23T15:44:16;100295.97;;;9.33;74.16
64253;BME280;50592;52.958;-7.470;2024-03-23T15:47:00;100286.94;;;9.35;71.92
64253;BME280;50592;52.958;-7.470;2024-03-23T15:50:25;100287.38;;;9.21;72.25
64253;BME280;50592;52.958;-7.470;2024-03-23T15:52:58;100282.13;;;9.11;76.25
64253;BME280;50592;52.958;-7.470;2024-03-23T15:55:30;100283.75;;;9.02;79.03
64253;BME280;50592;52.958;-7.470;2024-03-23T15:58:11;100282.53;;;9.06;82.93
64253;BME280;50592;52.958;-7.470;2024-03-23T16:00:45;100282.81;;;9.03;84.97
64253;BME280;50592;52.958;-7.470;2024-03-23T16:03:34;100291.53;;;9.13;85.46
64253;BME280;50592;52.958;-7.470;2024-03-23T16:06:24;100274.47;;;9.17;88.72
64253;BME280;50592;52.958;-7.470;2024-03-23T16:09:39;100270.44;;;9.13;82.36
64253;BME280;50592;52.958;-7.470;2024-03-23T16:12:28;100291.81;;;9.10;85.06
64253;BME280;50592;52.958;-7.470;2024-03-23T16:14:57;100283.47;;;9.05;90.02
64253;BME280;50592;52.958;-7.470;2024-03-23T16:17:52;100286.13;;;9.15;90.51
64253;BME280;50592;52.958;-7.470;2024-03-23T16:20:18;100279.34;;;9.12;94.51
64253;BME280;50592;52.958;-7.470;2024-03-23T16:23:02;100278.78;;;9.09;94.69
64253;BME280;50592;52.958;-7.470;2024-03-23T16:25:44;100295.16;;;9.12;85.69
64253;BME280;50592;52.958;-7.470;2024-03-23T16:28:42;100289.31;;;8.99;81.31
64253;BME280;50592;52.958;-7.470;2024-03-23T16:31:09;100283.75;;;8.92;82.12
64253;BME280;50592;52.958;-7.470;2024-03-23T16:33:52;100302.06;;;8.84;81.15
64253;BME280;50592;52.958;-7.470;2024-03-23T16:39:25;100295.50;;;8.68;79.12
64253;BME280;50592;52.958;-7.470;2024-03-23T16:41:54;100301.31;;;8.62;79.59
64253;BME280;50592;52.958;-7.470;2024-03-23T16:44:25;100318.56;;;8.76;83.02
64253;BME280;50592;52.958;-7.470;2024-03-23T16:46:54;100314.78;;;8.68;85.14